sensor_id;sensor_type;location;lat;lon;timestamp;P1;durP1;ratioP1;P2;durP2;ratioP2
72301;SDS011;60235;52.234;5.186;2022-08-21T00:01:43;9.88;;;3.60;;
72301;SDS011;60235;52.234;5.186;2022-08-21T00:04:09;11.25;;;3.75;;
72301;SDS011;60235;52.234;5.186;2022-08-21T00:06:36;11.98;;;3.78;;
72301;SDS011;60235;52.234;5.186;2022-08-21T00:09:03;10.93;;;3.28;;
72301;SDS011;60235;52.234;5.186;2022-08-21T00:11:29;8.55;;;3.40;;
72301;SDS011;60235;52.234;5.186;2022-08-21T00:13:55;8.48;;;3.15;;
72301;SDS011;60235;52.234;5.186;2022-08-21T00:16:21;11.45;;;4.10;;
72301;SDS011;60235;52.234;5.186;2022-08-21T00:18:47;23.83;;;6.38;;
72301;SDS011;60235;52.234;5.186;2022-08-21T00:21:14;9.15;;;3.67;;
72301;SDS011;60235;52.234;5.186;2022-08-21T00:23:40;11.95;;;3.42;;
72301;SDS011;60235;52.234;5.186;2022-08-21T00:26:06;9.13;;;3.70;;
72301;SDS011;60235;52.234;5.186;2022-08-21T00:28:32;9.32;;;3.33;;
72301;SDS011;60235;52.234;5.186;2022-08-21T00:30:59;10.95;;;3.47;;
72301;SDS011;60235;52.234;5.186;2022-08-21T00:33:25;9.73;;;3.90;;
72301;SDS011;60235;52.234;5.186;2022-08-21T00:35:51;12.23;;;3.92;;
72301;SDS011;60235;52.234;5.186;2022-08-21T00:38:17;11.70;;;3.90;;
72301;SDS011;60235;52.234;5.186;2022-08-21T00:40:46;11.65;;;4.25;;
72301;SDS011;60235;52.234;5.186;2022-08-21T00:43:14;10.80;;;3.75;;
72301;SDS011;60235;52.234;5.186;2022-08-21T00:45:40;11.70;;;3.65;;
72301;SDS011;60235;52.234;5.186;2022-08-21T00:48:07;11.63;;;3.25;;
72301;SDS011;60235;52.234;5.186;2022-08-21T00:50:34;10.75;;;3.58;;
72301;SDS011;60235;52.234;5.186;2022-08-21T00:53:00;8.90;;;3.38;;
72301;SDS011;60235;52.234;5.186;2022-08-21T00:55:27;10.15;;;3.40;;
72301;SDS011;60235;52.234;5.186;2022-08-21T00:57:55;11.43;;;3.65;;
72301;SDS011;60235;52.234;5.186;2022-08-21T01:00:23;10.85;;;3.60;;
72301;SDS011;60235;52.234;5.186;2022-08-21T01:02:50;8.15;;;3.63;;
72301;SDS011;60235;52.234;5.186;2022-08-21T01:05:16;12.40;;;3.80;;
72301;SDS011;60235;52.234;5.186;2022-08-21T01:07:42;12.77;;;3.63;;
72301;SDS011;60235;52.234;5.186;2022-08-21T01:10:09;10.93;;;3.83;;
72301;SDS011;60235;52.234;5.186;2022-08-21T01:12:36;10.45;;;4.13;;
72301;SDS011;60235;52.234;5.186;2022-08-21T01:15:03;9.73;;;3.60;;
72301;SDS011;60235;52.234;5.186;2022-08-21T01:17:29;13.00;;;3.75;;
72301;SDS011;60235;52.234;5.186;2022-08-21T01:20:00;10.15;;;3.72;;
72301;SDS011;60235;52.234;5.186;2022-08-21T01:22:27;10.35;;;3.70;;
72301;SDS011;60235;52.234;5.186;2022-08-21T01:24:53;12.15;;;4.05;;
72301;SDS011;60235;52.234;5.186;2022-08-21T01:27:19;13.00;;;4.20;;
72301;SDS011;60235;52.234;5.186;2022-08-21T01:29:56;12.45;;;3.80;;
72301;SDS011;60235;52.234;5.186;2022-08-21T01:32:22;11.55;;;3.88;;
72301;SDS011;60235;52.234;5.186;2022-08-21T01:34:50;11.65;;;3.58;;
72301;SDS011;60235;52.234;5.186;2022-08-21T01:37:16;11.48;;;3.63;;
72301;SDS011;60235;52.234;5.186;2022-08-21T01:39:42;13.60;;;3.67;;
72301;SDS011;60235;52.234;5.186;2022-08-21T01:42:09;13.23;;;4.00;;
72301;SDS011;60235;52.234;5.186;2022-08-21T01:44:35;8.43;;;3.13;;
72301;SDS011;60235;52.234;5.186;2022-08-21T01:47:05;10.90;;;4.05;;
72301;SDS011;60235;52.234;5.186;2022-08-21T01:49:32;10.48;;;3.78;;
72301;SDS011;60235;52.234;5.186;2022-08-21T01:51:58;10.80;;;3.78;;
72301;SDS011;60235;52.234;5.186;2022-08-21T01:54:25;11.73;;;3.92;;
72301;SDS011;60235;52.234;5.186;2022-08-21T01:56:52;8.80;;;3.83;;
72301;SDS011;60235;52.234;5.186;2022-08-21T01:59:18;9.80;;;3.45;;
72301;SDS011;60235;52.234;5.186;2022-08-21T02:01:44;13.43;;;3.95;;
72301;SDS011;60235;52.234;5.186;2022-08-21T02:04:10;11.35;;;3.97;;
72301;SDS011;60235;52.234;5.186;2022-08-21T02:06:37;11.23;;;3.83;;
72301;SDS011;60235;52.234;5.186;2022-08-21T02:09:04;10.48;;;3.70;;
72301;SDS011;60235;52.234;5.186;2022-08-21T02:11:30;11.23;;;3.40;;
72301;SDS011;60235;52.234;5.186;2022-08-21T02:13:56;8.95;;;3.60;;
72301;SDS011;60235;52.234;5.186;2022-08-21T02:16:22;9.75;;;3.88;;
72301;SDS011;60235;52.234;5.186;2022-08-21T02:18:48;10.52;;;3.53;;
72301;SDS011;60235;52.234;5.186;2022-08-21T02:21:15;9.60;;;3.72;;
72301;SDS011;60235;52.234;5.186;2022-08-21T02:23:41;11.30;;;3.90;;
72301;SDS011;60235;52.234;5.186;2022-08-21T02:26:07;12.07;;;3.67;;
72301;SDS011;60235;52.234;5.186;2022-08-21T02:28:34;11.25;;;4.10;;
72301;SDS011;60235;52.234;5.186;2022-08-21T02:31:00;12.18;;;3.78;;
72301;SDS011;60235;52.234;5.186;2022-08-21T02:33:26;11.88;;;3.75;;
72301;SDS011;60235;52.234;5.186;2022-08-21T02:35:53;9.73;;;4.22;;
72301;SDS011;60235;52.234;5.186;2022-08-21T02:38:21;10.93;;;3.97;;
72301;SDS011;60235;52.234;5.186;2022-08-21T02:40:48;12.55;;;4.20;;
72301;SDS011;60235;52.234;5.186;2022-08-21T02:43:15;15.45;;;4.20;;
72301;SDS011;60235;52.234;5.186;2022-08-21T02:45:41;12.52;;;4.10;;
72301;SDS011;60235;52.234;5.186;2022-08-21T02:48:08;10.50;;;4.18;;
72301;SDS011;60235;52.234;5.186;2022-08-21T02:50:41;9.60;;;3.47;;
72301;SDS011;60235;52.234;5.186;2022-08-21T02:53:09;10.60;;;3.85;;
72301;SDS011;60235;52.234;5.186;2022-08-21T02:55:35;11.02;;;4.47;;
72301;SDS011;60235;52.234;5.186;2022-08-21T02:58:02;12.32;;;4.43;;
72301;SDS011;60235;52.234;5.186;2022-08-21T03:00:29;13.63;;;4.20;;
72301;SDS011;60235;52.234;5.186;2022-08-21T03:02:56;11.15;;;4.00;;
72301;SDS011;60235;52.234;5.186;2022-08-21T03:05:22;11.82;;;4.00;;
72301;SDS011;60235;52.234;5.186;2022-08-21T03:07:49;11.52;;;4.55;;
72301;SDS011;60235;52.234;5.186;2022-08-21T03:10:16;10.90;;;4.07;;
72301;SDS011;60235;52.234;5.186;2022-08-21T03:12:42;12.20;;;4.38;;
72301;SDS011;60235;52.234;5.186;2022-08-21T03:15:13;11.07;;;4.15;;
72301;SDS011;60235;52.234;5.186;2022-08-21T03:17:40;14.60;;;4.47;;
72301;SDS011;60235;52.234;5.186;2022-08-21T03:20:06;8.95;;;3.97;;
72301;SDS011;60235;52.234;5.186;2022-08-21T03:22:33;15.73;;;4.43;;
72301;SDS011;60235;52.234;5.186;2022-08-21T03:24:59;13.30;;;4.25;;
72301;SDS011;60235;52.234;5.186;2022-08-21T03:27:26;15.43;;;4.28;;
72301;SDS011;60235;52.234;5.186;2022-08-21T03:29:53;12.75;;;4.20;;
72301;SDS011;60235;52.234;5.186;2022-08-21T03:32:19;12.25;;;4.20;;
72301;SDS011;60235;52.234;5.186;2022-08-21T03:34:45;13.63;;;4.43;;
72301;SDS011;60235;52.234;5.186;2022-08-21T03:37:11;14.05;;;4.55;;
72301;SDS011;60235;52.234;5.186;2022-08-21T03:39:37;9.45;;;3.80;;
72301;SDS011;60235;52.234;5.186;2022-08-21T03:42:03;11.35;;;4.70;;
72301;SDS011;60235;52.234;5.186;2022-08-21T03:44:30;12.02;;;4.50;;
72301;SDS011;60235;52.234;5.186;2022-08-21T03:46:56;11.05;;;4.22;;
72301;SDS011;60235;52.234;5.186;2022-08-21T03:49:22;10.60;;;4.60;;
72301;SDS011;60235;52.234;5.186;2022-08-21T03:51:48;11.68;;;4.53;;
72301;SDS011;60235;52.234;5.186;2022-08-21T03:54:15;10.35;;;4.68;;
72301;SDS011;60235;52.234;5.186;2022-08-21T03:56:41;11.30;;;4.40;;
72301;SDS011;60235;52.234;5.186;2022-08-21T03:59:07;13.13;;;4.30;;
72301;SDS011;60235;52.234;5.186;2022-08-21T04:01:33;11.00;;;4.57;;
72301;SDS011;60235;52.234;5.186;2022-08-21T04:03:59;12.63;;;4.72;;
72301;SDS011;60235;52.234;5.186;2022-08-21T04:06:25;11.85;;;4.60;;
72301;SDS011;60235;52.234;5.186;2022-08-21T04:08:52;12.40;;;4.90;;
72301;SDS011;60235;52.234;5.186;2022-08-21T04:11:18;10.93;;;4.30;;
72301;SDS011;60235;52.234;5.186;2022-08-21T04:13:44;12.88;;;3.95;;
72301;SDS011;60235;52.234;5.186;2022-08-21T04:16:10;14.60;;;5.45;;
72301;SDS011;60235;52.234;5.186;2022-08-21T04:18:36;11.65;;;5.43;;
72301;SDS011;60235;52.234;5.186;2022-08-21T04:21:02;10.45;;;4.30;;
72301;SDS011;60235;52.234;5.186;2022-08-21T04:23:29;13.50;;;4.53;;
72301;SDS011;60235;52.234;5.186;2022-08-21T04:25:55;14.50;;;5.40;;
72301;SDS011;60235;52.234;5.186;2022-08-21T04:28:22;10.90;;;4.63;;
72301;SDS011;60235;52.234;5.186;2022-08-21T04:30:49;12.65;;;4.47;;
72301;SDS011;60235;52.234;5.186;2022-08-21T04:33:15;14.93;;;5.35;;
72301;SDS011;60235;52.234;5.186;2022-08-21T04:35:41;12.77;;;4.75;;
72301;SDS011;60235;52.234;5.186;2022-08-21T04:38:08;14.68;;;5.25;;
72301;SDS011;60235;52.234;5.186;2022-08-21T04:40:34;13.55;;;4.35;;
72301;SDS011;60235;52.234;5.186;2022-08-21T04:43:01;13.60;;;5.15;;
72301;SDS011;60235;52.234;5.186;2022-08-21T04:45:29;14.68;;;6.15;;
72301;SDS011;60235;52.234;5.186;2022-08-21T04:47:56;14.93;;;5.03;;
72301;SDS011;60235;52.234;5.186;2022-08-21T04:50:24;12.32;;;5.65;;
72301;SDS011;60235;52.234;5.186;2022-08-21T04:52:52;12.80;;;5.47;;
72301;SDS011;60235;52.234;5.186;2022-08-21T04:55:18;15.38;;;5.10;;
72301;SDS011;60235;52.234;5.186;2022-08-21T04:57:45;17.90;;;6.05;;
72301;SDS011;60235;52.234;5.186;2022-08-21T05:00:11;12.35;;;4.75;;
72301;SDS011;60235;52.234;5.186;2022-08-21T05:02:39;13.82;;;5.38;;
72301;SDS011;60235;52.234;5.186;2022-08-21T05:05:06;15.57;;;5.85;;
72301;SDS011;60235;52.234;5.186;2022-08-21T05:07:32;19.35;;;5.93;;
72301;SDS011;60235;52.234;5.186;2022-08-21T05:09:59;13.00;;;4.80;;
72301;SDS011;60235;52.234;5.186;2022-08-21T05:12:26;14.85;;;5.47;;
72301;SDS011;60235;52.234;5.186;2022-08-21T05:14:52;13.73;;;5.45;;
72301;SDS011;60235;52.234;5.186;2022-08-21T05:17:18;14.30;;;5.00;;
72301;SDS011;60235;52.234;5.186;2022-08-21T05:19:44;14.95;;;6.20;;
72301;SDS011;60235;52.234;5.186;2022-08-21T05:22:10;13.98;;;5.50;;
72301;SDS011;60235;52.234;5.186;2022-08-21T05:24:36;14.70;;;6.20;;
72301;SDS011;60235;52.234;5.186;2022-08-21T05:27:02;13.88;;;5.60;;
72301;SDS011;60235;52.234;5.186;2022-08-21T05:29:29;13.50;;;6.15;;
72301;SDS011;60235;52.234;5.186;2022-08-21T05:31:56;14.57;;;5.57;;
72301;SDS011;60235;52.234;5.186;2022-08-21T05:34:22;16.42;;;6.10;;
72301;SDS011;60235;52.234;5.186;2022-08-21T05:36:49;14.38;;;5.60;;
72301;SDS011;60235;52.234;5.186;2022-08-21T05:39:15;11.90;;;5.72;;
72301;SDS011;60235;52.234;5.186;2022-08-21T05:41:41;18.88;;;5.75;;
72301;SDS011;60235;52.234;5.186;2022-08-21T05:44:07;11.52;;;5.00;;
72301;SDS011;60235;52.234;5.186;2022-08-21T05:46:33;14.13;;;5.88;;
72301;SDS011;60235;52.234;5.186;2022-08-21T05:48:59;15.25;;;5.80;;
72301;SDS011;60235;52.234;5.186;2022-08-21T05:51:25;12.93;;;6.00;;
72301;SDS011;60235;52.234;5.186;2022-08-21T05:53:51;13.07;;;4.97;;
72301;SDS011;60235;52.234;5.186;2022-08-21T05:56:17;16.90;;;5.65;;
72301;SDS011;60235;52.234;5.186;2022-08-21T05:58:43;14.85;;;5.10;;
72301;SDS011;60235;52.234;5.186;2022-08-21T06:01:09;16.98;;;5.30;;
72301;SDS011;60235;52.234;5.186;2022-08-21T06:03:36;17.80;;;5.60;;
72301;SDS011;60235;52.234;5.186;2022-08-21T06:06:03;15.93;;;5.28;;
72301;SDS011;60235;52.234;5.186;2022-08-21T06:08:29;17.30;;;5.05;;
72301;SDS011;60235;52.234;5.186;2022-08-21T06:10:56;14.68;;;4.90;;
72301;SDS011;60235;52.234;5.186;2022-08-21T06:13:23;12.90;;;5.28;;
72301;SDS011;60235;52.234;5.186;2022-08-21T06:15:49;15.27;;;5.53;;
72301;SDS011;60235;52.234;5.186;2022-08-21T06:18:16;15.75;;;5.65;;
72301;SDS011;60235;52.234;5.186;2022-08-21T06:20:43;16.90;;;5.38;;
72301;SDS011;60235;52.234;5.186;2022-08-21T06:23:09;16.05;;;4.82;;
72301;SDS011;60235;52.234;5.186;2022-08-21T06:25:35;15.50;;;5.57;;
72301;SDS011;60235;52.234;5.186;2022-08-21T06:28:03;17.50;;;5.10;;
72301;SDS011;60235;52.234;5.186;2022-08-21T06:30:29;13.35;;;4.82;;
72301;SDS011;60235;52.234;5.186;2022-08-21T06:32:55;15.13;;;5.65;;
72301;SDS011;60235;52.234;5.186;2022-08-21T06:35:21;16.70;;;5.55;;
72301;SDS011;60235;52.234;5.186;2022-08-21T06:37:48;19.23;;;5.43;;
72301;SDS011;60235;52.234;5.186;2022-08-21T06:40:14;15.32;;;5.30;;
72301;SDS011;60235;52.234;5.186;2022-08-21T06:42:40;16.88;;;5.30;;
72301;SDS011;60235;52.234;5.186;2022-08-21T06:45:06;15.90;;;5.18;;
72301;SDS011;60235;52.234;5.186;2022-08-21T06:47:32;18.23;;;5.55;;
72301;SDS011;60235;52.234;5.186;2022-08-21T06:49:58;15.93;;;4.63;;
72301;SDS011;60235;52.234;5.186;2022-08-21T06:52:24;18.90;;;4.55;;
72301;SDS011;60235;52.234;5.186;2022-08-21T06:54:50;17.40;;;4.78;;
72301;SDS011;60235;52.234;5.186;2022-08-21T06:57:16;15.63;;;4.63;;
72301;SDS011;60235;52.234;5.186;2022-08-21T06:59:42;20.00;;;4.90;;
72301;SDS011;60235;52.234;5.186;2022-08-21T07:02:08;17.65;;;5.18;;
72301;SDS011;60235;52.234;5.186;2022-08-21T07:04:34;16.60;;;4.85;;
72301;SDS011;60235;52.234;5.186;2022-08-21T07:07:00;15.68;;;4.90;;
72301;SDS011;60235;52.234;5.186;2022-08-21T07:09:26;16.35;;;5.13;;
72301;SDS011;60235;52.234;5.186;2022-08-21T07:11:54;15.15;;;4.72;;
72301;SDS011;60235;52.234;5.186;2022-08-21T07:14:20;23.55;;;5.32;;
72301;SDS011;60235;52.234;5.186;2022-08-21T07:16:47;17.50;;;4.38;;
72301;SDS011;60235;52.234;5.186;2022-08-21T07:19:13;16.38;;;4.70;;
72301;SDS011;60235;52.234;5.186;2022-08-21T07:21:39;18.15;;;4.60;;
72301;SDS011;60235;52.234;5.186;2022-08-21T07:24:05;17.70;;;4.93;;
72301;SDS011;60235;52.234;5.186;2022-08-21T07:26:31;19.33;;;5.45;;
72301;SDS011;60235;52.234;5.186;2022-08-21T07:28:57;15.95;;;4.50;;
72301;SDS011;60235;52.234;5.186;2022-08-21T07:31:23;14.55;;;4.70;;
72301;SDS011;60235;52.234;5.186;2022-08-21T07:33:50;17.17;;;4.65;;
72301;SDS011;60235;52.234;5.186;2022-08-21T07:36:16;17.83;;;5.07;;
72301;SDS011;60235;52.234;5.186;2022-08-21T07:38:42;14.90;;;4.57;;
72301;SDS011;60235;52.234;5.186;2022-08-21T07:41:16;12.05;;;4.38;;
72301;SDS011;60235;52.234;5.186;2022-08-21T07:43:42;14.18;;;4.90;;
72301;SDS011;60235;52.234;5.186;2022-08-21T07:46:08;15.00;;;4.13;;
72301;SDS011;60235;52.234;5.186;2022-08-21T07:48:34;17.45;;;4.68;;
72301;SDS011;60235;52.234;5.186;2022-08-21T07:51:01;17.02;;;4.97;;
72301;SDS011;60235;52.234;5.186;2022-08-21T07:53:28;16.55;;;4.95;;
72301;SDS011;60235;52.234;5.186;2022-08-21T07:55:56;16.58;;;4.70;;
72301;SDS011;60235;52.234;5.186;2022-08-21T07:58:22;13.07;;;4.25;;
72301;SDS011;60235;52.234;5.186;2022-08-21T08:00:48;12.77;;;4.50;;
72301;SDS011;60235;52.234;5.186;2022-08-21T08:03:14;17.23;;;4.90;;
72301;SDS011;60235;52.234;5.186;2022-08-21T08:05:40;17.35;;;3.92;;
72301;SDS011;60235;52.234;5.186;2022-08-21T08:08:07;19.10;;;4.47;;
72301;SDS011;60235;52.234;5.186;2022-08-21T08:10:33;17.40;;;4.43;;
72301;SDS011;60235;52.234;5.186;2022-08-21T08:12:59;15.10;;;4.05;;
72301;SDS011;60235;52.234;5.186;2022-08-21T08:15:26;17.95;;;5.05;;
72301;SDS011;60235;52.234;5.186;2022-08-21T08:17:53;14.20;;;4.03;;
72301;SDS011;60235;52.234;5.186;2022-08-21T08:20:19;13.18;;;4.30;;
72301;SDS011;60235;52.234;5.186;2022-08-21T08:22:47;14.90;;;4.78;;
72301;SDS011;60235;52.234;5.186;2022-08-21T08:25:14;12.55;;;4.03;;
72301;SDS011;60235;52.234;5.186;2022-08-21T08:27:40;17.83;;;4.80;;
72301;SDS011;60235;52.234;5.186;2022-08-21T08:30:07;14.07;;;4.40;;
72301;SDS011;60235;52.234;5.186;2022-08-21T08:32:34;13.52;;;4.70;;
72301;SDS011;60235;52.234;5.186;2022-08-21T08:35:01;14.82;;;5.03;;
72301;SDS011;60235;52.234;5.186;2022-08-21T08:37:27;15.13;;;4.90;;
72301;SDS011;60235;52.234;5.186;2022-08-21T08:39:53;18.80;;;5.40;;
72301;SDS011;60235;52.234;5.186;2022-08-21T08:42:27;17.10;;;5.32;;
72301;SDS011;60235;52.234;5.186;2022-08-21T08:45:01;14.05;;;4.75;;
72301;SDS011;60235;52.234;5.186;2022-08-21T08:47:27;15.10;;;5.25;;
72301;SDS011;60235;52.234;5.186;2022-08-21T08:50:00;16.25;;;4.95;;
72301;SDS011;60235;52.234;5.186;2022-08-21T08:52:29;17.45;;;5.43;;
72301;SDS011;60235;52.234;5.186;2022-08-21T08:57:22;18.70;;;4.93;;
72301;SDS011;60235;52.234;5.186;2022-08-21T08:59:51;14.15;;;5.60;;
72301;SDS011;60235;52.234;5.186;2022-08-21T09:02:17;15.57;;;4.72;;
72301;SDS011;60235;52.234;5.186;2022-08-21T09:04:45;18.02;;;5.43;;
72301;SDS011;60235;52.234;5.186;2022-08-21T09:20:44;12.48;;;4.72;;
72301;SDS011;60235;52.234;5.186;2022-08-21T09:25:42;16.85;;;4.55;;
72301;SDS011;60235;52.234;5.186;2022-08-21T09:28:11;15.43;;;4.47;;
72301;SDS011;60235;52.234;5.186;2022-08-21T09:30:39;16.65;;;3.70;;
72301;SDS011;60235;52.234;5.186;2022-08-21T09:33:06;12.80;;;4.03;;
72301;SDS011;60235;52.234;5.186;2022-08-21T09:35:32;12.60;;;3.83;;
72301;SDS011;60235;52.234;5.186;2022-08-21T09:38:02;11.60;;;3.35;;
72301;SDS011;60235;52.234;5.186;2022-08-21T09:42:57;12.48;;;3.80;;
72301;SDS011;60235;52.234;5.186;2022-08-21T09:45:24;16.00;;;4.32;;
72301;SDS011;60235;52.234;5.186;2022-08-21T09:47:50;13.68;;;3.65;;
72301;SDS011;60235;52.234;5.186;2022-08-21T09:50:18;11.77;;;3.70;;
72301;SDS011;60235;52.234;5.186;2022-08-21T09:52:46;10.82;;;3.53;;
72301;SDS011;60235;52.234;5.186;2022-08-21T09:55:15;11.45;;;2.75;;
72301;SDS011;60235;52.234;5.186;2022-08-21T09:58:01;13.57;;;3.72;;
72301;SDS011;60235;52.234;5.186;2022-08-21T10:00:31;12.48;;;3.55;;
72301;SDS011;60235;52.234;5.186;2022-08-21T10:03:11;10.25;;;2.80;;
72301;SDS011;60235;52.234;5.186;2022-08-21T10:05:38;11.32;;;2.55;;
72301;SDS011;60235;52.234;5.186;2022-08-21T10:08:04;12.50;;;3.13;;
72301;SDS011;60235;52.234;5.186;2022-08-21T10:10:31;10.40;;;2.78;;
72301;SDS011;60235;52.234;5.186;2022-08-21T10:13:04;12.13;;;2.38;;
72301;SDS011;60235;52.234;5.186;2022-08-21T10:20:45;12.02;;;2.70;;
72301;SDS011;60235;52.234;5.186;2022-08-21T10:25:45;14.68;;;2.80;;
72301;SDS011;60235;52.234;5.186;2022-08-21T10:28:18;13.80;;;2.67;;
72301;SDS011;60235;52.234;5.186;2022-08-21T10:38:45;9.07;;;2.08;;
72301;SDS011;60235;52.234;5.186;2022-08-21T10:41:32;14.93;;;3.05;;
72301;SDS011;60235;52.234;5.186;2022-08-21T10:44:12;14.43;;;2.70;;
72301;SDS011;60235;52.234;5.186;2022-08-21T10:46:54;11.73;;;2.63;;
72301;SDS011;60235;52.234;5.186;2022-08-21T10:51:54;11.50;;;3.10;;
72301;SDS011;60235;52.234;5.186;2022-08-21T10:54:29;13.88;;;3.35;;
72301;SDS011;60235;52.234;5.186;2022-08-21T10:57:05;18.83;;;3.25;;
72301;SDS011;60235;52.234;5.186;2022-08-21T10:59:47;14.32;;;2.70;;
72301;SDS011;60235;52.234;5.186;2022-08-21T11:02:17;11.88;;;3.47;;
72301;SDS011;60235;52.234;5.186;2022-08-21T11:04:50;14.27;;;3.78;;
72301;SDS011;60235;52.234;5.186;2022-08-21T11:09:54;13.85;;;3.50;;
72301;SDS011;60235;52.234;5.186;2022-08-21T11:12:25;13.10;;;3.65;;
72301;SDS011;60235;52.234;5.186;2022-08-21T11:14:58;10.30;;;3.10;;
72301;SDS011;60235;52.234;5.186;2022-08-21T11:20:34;10.23;;;2.80;;
72301;SDS011;60235;52.234;5.186;2022-08-21T11:25:41;9.75;;;2.58;;
72301;SDS011;60235;52.234;5.186;2022-08-21T11:28:15;14.02;;;2.55;;
72301;SDS011;60235;52.234;5.186;2022-08-21T11:30:48;10.55;;;2.35;;
72301;SDS011;60235;52.234;5.186;2022-08-21T11:35:46;11.80;;;2.72;;
72301;SDS011;60235;52.234;5.186;2022-08-21T11:43:20;9.80;;;2.40;;
72301;SDS011;60235;52.234;5.186;2022-08-21T11:45:51;8.52;;;1.98;;
72301;SDS011;60235;52.234;5.186;2022-08-21T11:50:46;9.43;;;2.00;;
72301;SDS011;60235;52.234;5.186;2022-08-21T11:56:04;10.57;;;2.00;;
72301;SDS011;60235;52.234;5.186;2022-08-21T12:00:56;10.38;;;2.83;;
72301;SDS011;60235;52.234;5.186;2022-08-21T12:03:28;11.45;;;2.22;;
72301;SDS011;60235;52.234;5.186;2022-08-21T12:05:56;11.77;;;2.60;;
72301;SDS011;60235;52.234;5.186;2022-08-21T12:08:31;7.45;;;2.15;;
72301;SDS011;60235;52.234;5.186;2022-08-21T12:13:30;10.50;;;2.20;;
72301;SDS011;60235;52.234;5.186;2022-08-21T12:16:13;10.27;;;2.03;;
72301;SDS011;60235;52.234;5.186;2022-08-21T12:18:40;9.57;;;2.03;;
72301;SDS011;60235;52.234;5.186;2022-08-21T12:26:34;11.75;;;1.90;;
72301;SDS011;60235;52.234;5.186;2022-08-21T12:31:56;8.82;;;1.90;;
72301;SDS011;60235;52.234;5.186;2022-08-21T12:34:24;9.63;;;1.50;;
72301;SDS011;60235;52.234;5.186;2022-08-21T12:39:36;5.72;;;1.40;;
72301;SDS011;60235;52.234;5.186;2022-08-21T12:42:20;12.55;;;1.88;;
72301;SDS011;60235;52.234;5.186;2022-08-21T12:44:53;6.95;;;1.90;;
72301;SDS011;60235;52.234;5.186;2022-08-21T12:47:33;8.40;;;2.20;;
72301;SDS011;60235;52.234;5.186;2022-08-21T12:52:30;9.02;;;1.60;;
72301;SDS011;60235;52.234;5.186;2022-08-21T12:54:58;7.13;;;1.50;;
72301;SDS011;60235;52.234;5.186;2022-08-21T12:57:26;11.77;;;2.35;;
72301;SDS011;60235;52.234;5.186;2022-08-21T12:59:53;12.38;;;2.85;;
72301;SDS011;60235;52.234;5.186;2022-08-21T13:02:20;12.45;;;2.65;;
72301;SDS011;60235;52.234;5.186;2022-08-21T13:04:47;9.10;;;1.80;;
72301;SDS011;60235;52.234;5.186;2022-08-21T13:07:15;7.90;;;1.60;;
72301;SDS011;60235;52.234;5.186;2022-08-21T13:09:50;6.38;;;1.55;;
72301;SDS011;60235;52.234;5.186;2022-08-21T13:12:16;10.15;;;1.80;;
72301;SDS011;60235;52.234;5.186;2022-08-21T13:14:44;5.95;;;1.63;;
72301;SDS011;60235;52.234;5.186;2022-08-21T13:17:12;9.85;;;1.90;;
72301;SDS011;60235;52.234;5.186;2022-08-21T13:19:39;8.82;;;2.03;;
72301;SDS011;60235;52.234;5.186;2022-08-21T13:22:11;9.93;;;2.05;;
72301;SDS011;60235;52.234;5.186;2022-08-21T13:24:37;9.13;;;1.88;;
72301;SDS011;60235;52.234;5.186;2022-08-21T13:27:15;8.45;;;1.95;;
72301;SDS011;60235;52.234;5.186;2022-08-21T13:29:41;7.40;;;1.83;;
72301;SDS011;60235;52.234;5.186;2022-08-21T13:32:07;7.10;;;1.58;;
72301;SDS011;60235;52.234;5.186;2022-08-21T13:34:41;10.75;;;1.95;;
72301;SDS011;60235;52.234;5.186;2022-08-21T13:37:07;9.18;;;1.70;;
72301;SDS011;60235;52.234;5.186;2022-08-21T13:39:34;7.90;;;1.65;;
72301;SDS011;60235;52.234;5.186;2022-08-21T13:42:00;9.35;;;1.58;;
72301;SDS011;60235;52.234;5.186;2022-08-21T13:46:56;8.68;;;2.22;;
72301;SDS011;60235;52.234;5.186;2022-08-21T13:49:26;8.85;;;1.80;;
72301;SDS011;60235;52.234;5.186;2022-08-21T13:51:54;7.80;;;1.60;;
72301;SDS011;60235;52.234;5.186;2022-08-21T13:54:27;8.52;;;1.83;;
72301;SDS011;60235;52.234;5.186;2022-08-21T13:56:55;9.13;;;1.85;;
72301;SDS011;60235;52.234;5.186;2022-08-21T13:59:28;8.43;;;1.88;;
72301;SDS011;60235;52.234;5.186;2022-08-21T14:01:59;7.25;;;1.80;;
72301;SDS011;60235;52.234;5.186;2022-08-21T14:06:51;8.32;;;1.70;;
72301;SDS011;60235;52.234;5.186;2022-08-21T14:11:52;9.75;;;2.25;;
72301;SDS011;60235;52.234;5.186;2022-08-21T14:14:20;5.93;;;1.70;;
72301;SDS011;60235;52.234;5.186;2022-08-21T14:17:01;6.82;;;1.60;;
72301;SDS011;60235;52.234;5.186;2022-08-21T14:19:34;11.25;;;1.95;;
72301;SDS011;60235;52.234;5.186;2022-08-21T14:22:38;11.60;;;2.10;;
72301;SDS011;60235;52.234;5.186;2022-08-21T14:27:30;7.85;;;1.77;;
72301;SDS011;60235;52.234;5.186;2022-08-21T14:29:58;9.55;;;2.13;;
72301;SDS011;60235;52.234;5.186;2022-08-21T14:32:26;9.50;;;1.70;;
72301;SDS011;60235;52.234;5.186;2022-08-21T14:34:54;7.95;;;2.03;;
72301;SDS011;60235;52.234;5.186;2022-08-21T14:37:21;8.10;;;1.90;;
72301;SDS011;60235;52.234;5.186;2022-08-21T14:39:47;8.73;;;2.08;;
72301;SDS011;60235;52.234;5.186;2022-08-21T14:42:13;7.03;;;1.85;;
72301;SDS011;60235;52.234;5.186;2022-08-21T14:44:39;9.15;;;2.00;;
72301;SDS011;60235;52.234;5.186;2022-08-21T14:47:06;8.90;;;2.67;;
72301;SDS011;60235;52.234;5.186;2022-08-21T14:49:32;8.43;;;1.80;;
72301;SDS011;60235;52.234;5.186;2022-08-21T14:51:58;9.95;;;1.60;;
72301;SDS011;60235;52.234;5.186;2022-08-21T14:54:28;9.27;;;1.60;;
72301;SDS011;60235;52.234;5.186;2022-08-21T14:56:54;8.23;;;1.95;;
72301;SDS011;60235;52.234;5.186;2022-08-21T14:59:20;8.55;;;1.70;;
72301;SDS011;60235;52.234;5.186;2022-08-21T15:01:46;8.65;;;1.85;;
72301;SDS011;60235;52.234;5.186;2022-08-21T15:04:13;10.43;;;1.80;;
72301;SDS011;60235;52.234;5.186;2022-08-21T15:06:39;8.07;;;1.80;;
72301;SDS011;60235;52.234;5.186;2022-08-21T15:09:05;9.77;;;1.90;;
72301;SDS011;60235;52.234;5.186;2022-08-21T15:11:31;10.85;;;1.85;;
72301;SDS011;60235;52.234;5.186;2022-08-21T15:13:58;8.43;;;1.75;;
72301;SDS011;60235;52.234;5.186;2022-08-21T15:16:26;9.77;;;1.65;;
72301;SDS011;60235;52.234;5.186;2022-08-21T15:18:52;9.15;;;1.70;;
72301;SDS011;60235;52.234;5.186;2022-08-21T15:21:18;9.63;;;1.77;;
72301;SDS011;60235;52.234;5.186;2022-08-21T15:23:44;11.63;;;1.85;;
72301;SDS011;60235;52.234;5.186;2022-08-21T15:26:10;8.35;;;1.95;;
72301;SDS011;60235;52.234;5.186;2022-08-21T15:28:36;10.30;;;1.77;;
72301;SDS011;60235;52.234;5.186;2022-08-21T15:31:03;9.13;;;1.83;;
72301;SDS011;60235;52.234;5.186;2022-08-21T15:33:29;13.38;;;2.92;;
72301;SDS011;60235;52.234;5.186;2022-08-21T15:35:56;8.18;;;2.10;;
72301;SDS011;60235;52.234;5.186;2022-08-21T15:38:22;9.65;;;2.03;;
72301;SDS011;60235;52.234;5.186;2022-08-21T15:40:48;10.30;;;2.08;;
72301;SDS011;60235;52.234;5.186;2022-08-21T15:43:56;10.27;;;1.85;;
72301;SDS011;60235;52.234;5.186;2022-08-21T15:46:03;7.68;;;1.85;;
72301;SDS011;60235;52.234;5.186;2022-08-21T15:48:30;7.65;;;1.77;;
72301;SDS011;60235;52.234;5.186;2022-08-21T15:50:56;8.00;;;1.80;;
72301;SDS011;60235;52.234;5.186;2022-08-21T15:53:22;6.63;;;1.55;;
72301;SDS011;60235;52.234;5.186;2022-08-21T15:55:48;8.43;;;1.73;;
72301;SDS011;60235;52.234;5.186;2022-08-21T15:58:15;9.48;;;1.85;;
72301;SDS011;60235;52.234;5.186;2022-08-21T16:00:41;8.05;;;1.70;;
72301;SDS011;60235;52.234;5.186;2022-08-21T16:03:09;9.73;;;1.90;;
72301;SDS011;60235;52.234;5.186;2022-08-21T16:05:39;13.43;;;2.63;;
72301;SDS011;60235;52.234;5.186;2022-08-21T16:08:05;6.18;;;1.90;;
72301;SDS011;60235;52.234;5.186;2022-08-21T16:10:31;11.68;;;2.00;;